createdAt,value
2022-10-26T00:01:18.255Z,90.70
2022-10-26T00:04:20.444Z,90.70
2022-10-26T00:07:22.630Z,90.70
2022-10-26T00:10:27.147Z,90.70
2022-10-26T00:13:32.168Z,90.70
2022-10-26T00:16:34.308Z,90.70
2022-10-26T00:19:38.279Z,90.70
2022-10-26T00:22:40.818Z,90.70
2022-10-26T00:25:42.968Z,90.70
2022-10-26T00:28:45.231Z,90.70
2022-10-26T00:31:47.325Z,90.70
2022-10-26T00:34:49.537Z,90.70
2022-10-26T00:37:56.325Z,90.70
2022-10-26T00:44:48.733Z,90.60
2022-10-26T00:48:14.092Z,90.60
2022-10-26T00:51:23.151Z,90.60
2022-10-26T00:54:25.264Z,90.50
2022-10-26T00:57:27.700Z,90.50
2022-10-26T01:00:30.348Z,90.50
2022-10-26T01:03:34.726Z,90.50
2022-10-26T01:06:38.165Z,90.50
2022-10-26T01:09:40.369Z,90.50
2022-10-26T01:12:43.020Z,90.40
2022-10-26T01:16:04.727Z,90.50
2022-10-26T01:19:33.853Z,90.50
2022-10-26T01:22:35.931Z,90.50
2022-10-26T01:26:08.106Z,90.40
2022-10-26T01:29:15.011Z,90.40
2022-10-26T01:32:31.163Z,90.40
2022-10-26T01:35:50.848Z,90.40
2022-10-26T01:39:13.736Z,90.50
2022-10-26T01:42:17.746Z,90.50
2022-10-26T01:45:20.177Z,90.40
2022-10-26T01:48:25.566Z,90.40
2022-10-26T01:51:28.932Z,90.80
2022-10-26T01:54:31.354Z,90.40
2022-10-26T01:57:36.373Z,90.40
2022-10-26T02:00:46.338Z,90.40
2022-10-26T02:04:05.399Z,90.30
2022-10-26T02:07:22.166Z,90.40
2022-10-26T02:10:27.108Z,90.30
2022-10-26T02:14:21.539Z,90.30
2022-10-26T02:17:34.784Z,90.30
2022-10-26T02:20:46.925Z,90.20
2022-10-26T02:23:51.318Z,90.30
2022-10-26T02:26:56.412Z,90.30
2022-10-26T02:30:02.035Z,90.20
2022-10-26T02:33:06.102Z,90.30
2022-10-26T02:36:11.575Z,90.20
2022-10-26T02:39:16.583Z,90.20
2022-10-26T02:42:19.799Z,90.20
2022-10-26T02:45:26.787Z,90.20
2022-10-26T02:48:29.253Z,90.10
2022-10-26T02:51:46.223Z,90.10
2022-10-26T02:54:56.315Z,90.10
2022-10-26T02:58:00.413Z,90.10
2022-10-26T03:01:02.988Z,90.10
2022-10-26T03:04:05.482Z,90.00
2022-10-26T03:07:07.594Z,90.10
2022-10-26T03:10:10.299Z,90.00
2022-10-26T03:13:13.599Z,90.40
2022-10-26T03:16:15.694Z,90.00
2022-10-26T03:19:17.982Z,90.00
2022-10-26T03:22:20.116Z,90.00
2022-10-26T03:25:22.519Z,90.00
2022-10-26T03:28:25.221Z,90.00
2022-10-26T03:31:27.316Z,90.10
2022-10-26T03:34:29.457Z,90.00
2022-10-26T03:37:31.787Z,90.00
2022-10-26T03:40:35.680Z,90.00
2022-10-26T03:43:37.815Z,90.00
2022-10-26T03:46:40.091Z,90.00
2022-10-26T03:49:42.183Z,90.00
2022-10-26T03:52:44.901Z,90.00
2022-10-26T03:55:46.979Z,90.00
2022-10-26T03:58:49.277Z,90.00
2022-10-26T04:01:54.044Z,90.00
2022-10-26T04:04:58.998Z,90.00
2022-10-26T04:08:04.867Z,90.00
2022-10-26T04:11:06.996Z,90.00
2022-10-26T04:14:09.014Z,90.00
2022-10-26T04:17:11.131Z,90.00
2022-10-26T04:20:13.620Z,90.00
2022-10-26T04:23:17.357Z,90.00
2022-10-26T04:26:19.602Z,90.00
2022-10-26T04:29:21.770Z,90.00
2022-10-26T04:32:23.925Z,90.00
2022-10-26T04:35:26.310Z,90.30
2022-10-26T04:38:28.666Z,90.00
2022-10-26T04:41:30.788Z,90.00
2022-10-26T04:44:33.293Z,90.00
2022-10-26T04:47:35.380Z,90.00
2022-10-26T04:50:38.815Z,90.00
2022-10-26T04:53:40.949Z,90.00
2022-10-26T04:56:43.128Z,89.70
2022-10-26T04:59:45.540Z,89.60
2022-10-26T05:02:47.793Z,89.60
2022-10-26T05:05:49.956Z,89.60
2022-10-26T05:08:52.144Z,89.70
2022-10-26T05:11:54.276Z,89.70
2022-10-26T05:14:59.118Z,89.70
2022-10-26T05:18:05.843Z,89.60
2022-10-26T05:21:07.954Z,89.60
2022-10-26T05:24:12.393Z,89.60
2022-10-26T05:27:14.843Z,89.60
2022-10-26T05:30:17.018Z,89.70
2022-10-26T05:33:19.235Z,89.70
2022-10-26T05:36:21.507Z,89.70
2022-10-26T05:39:23.741Z,89.70
2022-10-26T05:42:25.914Z,89.70
2022-10-26T05:45:28.462Z,89.70
2022-10-26T05:48:30.534Z,89.60
2022-10-26T05:51:37.332Z,90.10
2022-10-26T05:54:39.496Z,89.50
2022-10-26T05:57:42.734Z,89.60
2022-10-26T06:00:52.998Z,89.50
2022-10-26T06:04:18.949Z,89.60
2022-10-26T06:07:21.338Z,89.60
2022-10-26T06:10:23.962Z,89.50
2022-10-26T06:13:26.506Z,89.50
2022-10-26T06:16:31.704Z,89.50
2022-10-26T06:19:51.901Z,89.50
2022-10-26T06:23:01.337Z,89.60
2022-10-26T06:26:29.890Z,89.50
2022-10-26T06:29:37.680Z,89.60
2022-10-26T06:32:43.885Z,89.50
2022-10-26T06:35:59.672Z,89.40
2022-10-26T06:39:05.259Z,89.80
2022-10-26T06:42:10.861Z,89.50
2022-10-26T06:48:54.393Z,89.50
2022-10-26T06:52:11.839Z,89.70
2022-10-26T06:55:15.624Z,89.60
2022-10-26T06:58:20.138Z,89.60
2022-10-26T07:01:22.420Z,89.70
2022-10-26T07:04:24.550Z,89.70
2022-10-26T07:07:31.100Z,89.70
2022-10-26T07:10:35.338Z,89.70
2022-10-26T07:13:37.392Z,89.70
2022-10-26T07:16:39.556Z,89.80
2022-10-26T07:19:44.732Z,89.90
2022-10-26T07:22:55.770Z,90.00
2022-10-26T07:26:00.283Z,90.00
2022-10-26T07:29:02.654Z,90.00
2022-10-26T07:32:04.994Z,90.00
2022-10-26T07:35:07.413Z,90.00
2022-10-26T07:38:09.729Z,90.20
2022-10-26T07:41:11.875Z,90.10
2022-10-26T07:44:14.002Z,90.10
2022-10-26T07:47:16.322Z,90.10
2022-10-26T07:50:18.440Z,90.10
2022-10-26T07:53:22.891Z,90.20
2022-10-26T07:56:29.093Z,90.20
2022-10-26T07:59:31.194Z,90.20
2022-10-26T08:02:33.467Z,90.20
2022-10-26T08:05:35.947Z,90.20
2022-10-26T08:08:38.410Z,90.20
2022-10-26T08:11:40.672Z,90.20
2022-10-26T08:14:43.334Z,90.20
2022-10-26T08:17:45.404Z,90.20
2022-10-26T08:20:47.536Z,90.20
2022-10-26T08:23:49.627Z,90.20
2022-10-26T08:26:51.866Z,90.30
2022-10-26T08:29:54.000Z,90.30
2022-10-26T08:33:04.066Z,90.30
2022-10-26T08:36:06.228Z,90.30
2022-10-26T08:39:08.346Z,90.30
2022-10-26T08:42:40.799Z,90.40
2022-10-26T08:45:50.975Z,90.40
2022-10-26T08:49:08.952Z,90.40
2022-10-26T08:52:15.849Z,90.40
2022-10-26T08:55:26.749Z,90.40
2022-10-26T08:58:34.246Z,90.40
2022-10-26T09:01:36.543Z,90.50
2022-10-26T09:04:39.183Z,90.50
2022-10-26T09:07:47.650Z,90.50
2022-10-26T09:11:10.940Z,90.50
2022-10-26T09:14:53.828Z,90.50
2022-10-26T09:18:22.056Z,90.50
2022-10-26T09:22:04.269Z,90.50
2022-10-26T09:25:24.165Z,90.50
2022-10-26T09:28:28.110Z,90.50
2022-10-26T09:31:42.385Z,90.50
2022-10-26T09:34:53.528Z,90.60
2022-10-26T09:38:03.659Z,90.60
2022-10-26T09:41:05.831Z,90.60
2022-10-26T09:44:18.648Z,90.60
2022-10-26T09:47:33.689Z,90.60
2022-10-26T09:50:39.124Z,90.60
2022-10-26T09:53:41.260Z,90.60
2022-10-26T09:56:51.723Z,90.60
2022-10-26T09:59:55.842Z,90.70
2022-10-26T10:02:59.010Z,90.70
2022-10-26T10:06:19.675Z,90.70
2022-10-26T10:09:24.818Z,90.70
2022-10-26T10:12:27.020Z,90.70
2022-10-26T10:15:29.185Z,90.60
2022-10-26T10:18:32.239Z,90.70
2022-10-26T10:21:48.342Z,90.70
2022-10-26T10:25:01.612Z,90.70
2022-10-26T10:28:23.511Z,90.70
2022-10-26T10:31:33.595Z,90.70
2022-10-26T10:34:36.294Z,90.70
2022-10-26T10:37:42.869Z,90.70
2022-10-26T10:40:58.226Z,90.70
2022-10-26T10:44:17.773Z,90.70
2022-10-26T10:47:33.115Z,90.70
2022-10-26T10:50:36.740Z,90.70
2022-10-26T10:53:48.466Z,90.70
2022-10-26T10:57:08.791Z,90.80
2022-10-26T11:00:12.631Z,90.80
2022-10-26T11:03:39.531Z,90.70
2022-10-26T11:06:45.159Z,90.70
2022-10-26T11:09:49.408Z,90.70
2022-10-26T11:12:59.853Z,90.70
2022-10-26T11:16:11.409Z,90.80
2022-10-26T11:19:24.214Z,90.70
2022-10-26T11:22:55.690Z,90.80
2022-10-26T11:26:05.201Z,90.80
2022-10-26T11:29:35.069Z,90.70
2022-10-26T11:33:15.059Z,90.80
2022-10-26T11:36:22.016Z,90.80
2022-10-26T11:39:45.317Z,90.80
2022-10-26T11:43:07.388Z,90.70
2022-10-26T11:46:28.661Z,90.80
2022-10-26T11:50:03.330Z,90.80
2022-10-26T11:53:40.093Z,91.10
2022-10-26T11:56:49.547Z,90.80
2022-10-26T12:00:18.496Z,90.80
2022-10-26T12:03:27.188Z,90.80
2022-10-26T12:06:32.673Z,90.80
2022-10-26T12:09:38.765Z,90.80
2022-10-26T12:12:54.510Z,90.80
2022-10-26T12:16:04.270Z,90.90
2022-10-26T12:19:13.439Z,90.80
2022-10-26T12:22:19.168Z,90.80
2022-10-26T12:25:22.541Z,90.80
2022-10-26T12:28:36.891Z,90.90
2022-10-26T12:31:39.065Z,90.80
2022-10-26T12:34:41.182Z,90.80
2022-10-26T12:37:43.367Z,90.80
2022-10-26T12:40:45.756Z,90.80
2022-10-26T12:43:48.456Z,90.90
2022-10-26T12:46:50.612Z,90.80
2022-10-26T12:50:22.810Z,90.90
2022-10-26T12:53:26.434Z,90.90
2022-10-26T12:56:51.163Z,90.90
2022-10-26T13:00:01.948Z,90.90
2022-10-26T13:03:25.762Z,90.90
2022-10-26T13:06:47.013Z,90.90
2022-10-26T13:10:03.532Z,90.90
2022-10-26T13:13:07.177Z,90.90
2022-10-26T13:16:16.737Z,90.90
2022-10-26T13:19:32.103Z,90.90
2022-10-26T13:22:44.631Z,90.90
2022-10-26T13:26:06.219Z,90.90
2022-10-26T13:29:10.721Z,90.90
2022-10-26T13:32:14.243Z,90.90
2022-10-26T13:35:17.861Z,90.90
2022-10-26T13:38:23.397Z,90.90
2022-10-26T13:41:39.080Z,90.90
2022-10-26T13:44:56.451Z,90.90
2022-10-26T13:48:07.046Z,90.90
2022-10-26T13:51:22.592Z,90.90
2022-10-26T13:54:39.552Z,90.90
2022-10-26T13:57:51.330Z,90.90
2022-10-26T14:01:10.066Z,90.90
2022-10-26T14:04:17.104Z,90.90
2022-10-26T14:07:25.736Z,90.90
2022-10-26T14:10:40.584Z,90.90
2022-10-26T14:13:43.041Z,90.90
2022-10-26T14:16:46.644Z,90.90
2022-10-26T14:19:50.163Z,90.90
2022-10-26T14:22:52.752Z,90.90
2022-10-26T14:25:58.920Z,90.90
2022-10-26T14:29:02.246Z,90.90
2022-10-26T14:32:30.424Z,90.80
2022-10-26T14:35:37.405Z,90.90
2022-10-26T14:38:45.565Z,90.80
2022-10-26T14:41:49.739Z,90.90
2022-10-26T14:44:51.983Z,90.80
2022-10-26T14:47:55.103Z,90.80
2022-10-26T14:51:07.156Z,90.80
2022-10-26T14:54:23.791Z,90.80
2022-10-26T14:57:37.857Z,90.90
2022-10-26T15:00:40.575Z,90.90
2022-10-26T15:03:48.450Z,90.90
2022-10-26T15:09:54.104Z,90.90
2022-10-26T15:12:56.192Z,90.90
2022-10-26T15:16:15.745Z,90.90
2022-10-26T15:19:23.865Z,90.90
2022-10-26T15:22:31.861Z,90.90
2022-10-26T15:25:34.952Z,90.90
2022-10-26T15:28:37.019Z,90.90
2022-10-26T15:31:39.340Z,90.90
2022-10-26T15:34:41.517Z,90.90
2022-10-26T15:37:44.037Z,91.00
2022-10-26T15:40:46.249Z,91.00
2022-10-26T15:43:50.064Z,91.00
2022-10-26T15:46:52.251Z,91.00
2022-10-26T15:49:54.396Z,91.00
2022-10-26T15:53:01.677Z,91.00
2022-10-26T15:56:11.144Z,90.90
2022-10-26T15:59:16.456Z,91.00
2022-10-26T16:02:18.657Z,91.00
2022-10-26T16:05:20.820Z,90.90
2022-10-26T16:08:23.575Z,90.90
2022-10-26T16:11:25.869Z,90.90
2022-10-26T16:14:33.372Z,91.00
2022-10-26T16:17:35.769Z,91.00
2022-10-26T16:20:37.882Z,91.00
2022-10-26T16:23:40.659Z,91.00
2022-10-26T16:26:42.747Z,91.30
2022-10-26T16:29:44.845Z,91.00
2022-10-26T16:32:47.145Z,91.00
2022-10-26T16:35:56.500Z,91.00
2022-10-26T16:38:58.697Z,91.30
2022-10-26T16:42:01.452Z,91.00
2022-10-26T16:45:04.521Z,91.00
2022-10-26T16:48:13.965Z,90.90
2022-10-26T16:51:28.093Z,91.00
2022-10-26T16:54:31.218Z,91.00
2022-10-26T16:57:33.658Z,91.00
2022-10-26T17:00:36.910Z,91.00
2022-10-26T17:03:39.904Z,91.00
2022-10-26T17:06:42.032Z,90.90
2022-10-26T17:09:44.144Z,90.90
2022-10-26T17:12:46.481Z,90.90
2022-10-26T17:15:49.314Z,90.90
2022-10-26T17:18:52.467Z,90.90
2022-10-26T17:21:54.552Z,90.90
2022-10-26T17:24:56.917Z,90.90
2022-10-26T17:27:59.615Z,90.90
2022-10-26T17:31:09.862Z,90.90
2022-10-26T17:34:12.042Z,90.90
2022-10-26T17:37:14.129Z,90.80
2022-10-26T17:40:16.484Z,90.90
2022-10-26T17:43:18.709Z,90.90
2022-10-26T17:46:24.354Z,90.80
2022-10-26T17:49:28.636Z,90.90
2022-10-26T17:52:32.837Z,90.80
2022-10-26T17:55:35.583Z,90.80
2022-10-26T17:58:37.995Z,90.80
2022-10-26T18:01:40.177Z,90.80
2022-10-26T18:04:42.403Z,90.80
2022-10-26T18:07:44.597Z,90.80
2022-10-26T18:10:51.625Z,90.80
2022-10-26T18:13:57.519Z,90.80
2022-10-26T18:16:59.760Z,90.80
2022-10-26T18:20:01.925Z,90.80
2022-10-26T18:23:04.801Z,90.80
2022-10-26T18:26:13.071Z,90.80
2022-10-26T18:29:16.261Z,90.80
2022-10-26T18:32:18.564Z,90.80
2022-10-26T18:35:20.718Z,90.80
2022-10-26T18:38:22.818Z,90.70
2022-10-26T18:41:25.765Z,90.70
2022-10-26T18:44:27.939Z,90.70
2022-10-26T18:47:31.186Z,90.70
2022-10-26T18:50:35.707Z,90.70
2022-10-26T18:53:39.334Z,90.70
2022-10-26T18:56:41.928Z,90.70
2022-10-26T18:59:44.069Z,90.70
2022-10-26T19:02:51.484Z,90.70
2022-10-26T19:05:54.702Z,90.70
2022-10-26T19:08:57.146Z,90.70
2022-10-26T19:12:01.471Z,90.70
2022-10-26T19:15:06.495Z,90.60
2022-10-26T19:18:08.840Z,90.60
2022-10-26T19:21:14.131Z,90.60
2022-10-26T19:24:21.332Z,90.60
2022-10-26T19:27:23.377Z,90.60
2022-10-26T19:30:25.520Z,90.90
2022-10-26T19:33:28.149Z,90.60
2022-10-26T19:36:30.700Z,90.60
2022-10-26T19:39:32.766Z,90.60
2022-10-26T19:42:34.947Z,90.60
2022-10-26T19:45:37.172Z,90.60
2022-10-26T19:48:40.225Z,90.60
2022-10-26T19:51:42.465Z,90.60
2022-10-26T19:54:44.643Z,90.60
2022-10-26T19:57:46.933Z,90.60
2022-10-26T20:00:49.380Z,90.50
2022-10-26T20:03:51.625Z,90.50
2022-10-26T20:06:53.902Z,90.50
2022-10-26T20:09:56.081Z,90.50
2022-10-26T20:12:58.313Z,90.50
2022-10-26T20:16:00.470Z,90.50
2022-10-26T20:19:02.665Z,90.50
2022-10-26T20:22:04.989Z,90.50
2022-10-26T20:25:07.609Z,90.50
2022-10-26T20:28:10.897Z,90.50
2022-10-26T20:31:13.779Z,90.50
2022-10-26T20:34:15.880Z,90.50
2022-10-26T20:37:18.397Z,90.50
2022-10-26T20:40:24.170Z,90.50
2022-10-26T20:43:28.048Z,90.40
2022-10-26T20:46:30.599Z,90.40
2022-10-26T20:49:32.988Z,90.40
2022-10-26T20:52:51.882Z,90.40
2022-10-26T20:55:58.416Z,90.40
2022-10-26T20:59:03.217Z,90.40
2022-10-26T21:02:05.472Z,90.40
2022-10-26T21:05:07.868Z,90.30
2022-10-26T21:08:10.054Z,90.30
2022-10-26T21:11:12.163Z,90.30
2022-10-26T21:14:14.357Z,90.30
2022-10-26T21:17:16.674Z,90.30
2022-10-26T21:20:18.764Z,90.30
2022-10-26T21:23:20.882Z,90.30
2022-10-26T21:26:23.013Z,90.30
2022-10-26T21:29:25.229Z,90.30
2022-10-26T21:32:27.456Z,90.30
2022-10-26T21:35:29.943Z,90.30
2022-10-26T21:38:33.230Z,90.30
2022-10-26T21:41:37.802Z,90.30
2022-10-26T21:44:41.299Z,90.30
2022-10-26T21:47:44.986Z,90.20
2022-10-26T21:50:47.057Z,90.20
2022-10-26T21:53:49.163Z,90.30
2022-10-26T21:56:51.249Z,90.20
2022-10-26T21:59:53.346Z,90.20
2022-10-26T22:02:55.443Z,90.20
2022-10-26T22:05:57.634Z,90.20
2022-10-26T22:08:59.761Z,90.20
2022-10-26T22:12:05.278Z,90.20
2022-10-26T22:15:07.896Z,90.20
2022-10-26T22:18:10.017Z,90.30
2022-10-26T22:21:13.748Z,90.20
2022-10-26T22:24:16.064Z,90.20
2022-10-26T22:27:18.227Z,90.20
2022-10-26T22:30:20.828Z,90.20
2022-10-26T22:33:22.918Z,90.30
2022-10-26T22:36:26.128Z,90.20
2022-10-26T22:39:28.301Z,90.20
2022-10-26T22:42:30.484Z,90.20
2022-10-26T22:45:32.650Z,90.20
2022-10-26T22:48:35.713Z,90.20
2022-10-26T22:51:37.812Z,90.20
2022-10-26T22:54:39.919Z,90.20
2022-10-26T22:57:42.032Z,90.20
2022-10-26T23:00:44.300Z,90.20
2022-10-26T23:03:46.745Z,90.20
2022-10-26T23:06:48.997Z,90.20
2022-10-26T23:09:51.191Z,90.10
2022-10-26T23:12:54.240Z,90.10
2022-10-26T23:15:57.073Z,90.10
2022-10-26T23:19:00.113Z,90.10
2022-10-26T23:22:02.224Z,90.10
2022-10-26T23:25:04.809Z,90.10
2022-10-26T23:28:06.909Z,90.10
2022-10-26T23:31:14.134Z,90.10
2022-10-26T23:34:16.231Z,90.10
2022-10-26T23:37:19.615Z,90.00
2022-10-26T23:40:21.795Z,90.10
2022-10-26T23:43:24.734Z,90.10
2022-10-26T23:49:51.780Z,90.10
2022-10-26T23:52:53.944Z,90.10
2022-10-26T23:55:56.072Z,90.00
2022-10-26T23:59:00.984Z,90.00
